sensor_id;sensor_type;location;lat;lon;timestamp;P1;durP1;ratioP1;P2;durP2;ratioP2
20997;SDS011;10657;51.276;6.390;2023-05-16T00:01:20;6.88;;;1.20;;
20997;SDS011;10657;51.276;6.390;2023-05-16T00:03:47;5.65;;;1.52;;
20997;SDS011;10657;51.276;6.390;2023-05-16T00:06:14;3.47;;;1.30;;
20997;SDS011;10657;51.276;6.390;2023-05-16T00:08:41;4.63;;;1.50;;
20997;SDS011;10657;51.276;6.390;2023-05-16T00:11:08;5.45;;;1.25;;
20997;SDS011;10657;51.276;6.390;2023-05-16T00:13:35;5.93;;;1.50;;
20997;SDS011;10657;51.276;6.390;2023-05-16T00:16:02;6.45;;;1.70;;
20997;SDS011;10657;51.276;6.390;2023-05-16T00:18:30;4.95;;;1.65;;
20997;SDS011;10657;51.276;6.390;2023-05-16T00:20:56;4.25;;;1.52;;
20997;SDS011;10657;51.276;6.390;2023-05-16T00:23:24;7.13;;;2.20;;
20997;SDS011;10657;51.276;6.390;2023-05-16T00:25:50;6.65;;;2.25;;
20997;SDS011;10657;51.276;6.390;2023-05-16T00:28:17;5.55;;;1.90;;
20997;SDS011;10657;51.276;6.390;2023-05-16T00:30:44;10.20;;;2.40;;
20997;SDS011;10657;51.276;6.390;2023-05-16T00:33:10;7.35;;;2.25;;
20997;SDS011;10657;51.276;6.390;2023-05-16T00:35:37;6.47;;;2.03;;
20997;SDS011;10657;51.276;6.390;2023-05-16T00:38:04;7.38;;;2.10;;
20997;SDS011;10657;51.276;6.390;2023-05-16T00:40:31;8.02;;;1.92;;
20997;SDS011;10657;51.276;6.390;2023-05-16T00:42:58;6.78;;;1.80;;
20997;SDS011;10657;51.276;6.390;2023-05-16T00:45:24;7.57;;;2.05;;
20997;SDS011;10657;51.276;6.390;2023-05-16T00:47:51;8.77;;;1.98;;
20997;SDS011;10657;51.276;6.390;2023-05-16T00:50:18;6.43;;;1.70;;
20997;SDS011;10657;51.276;6.390;2023-05-16T00:52:45;8.90;;;2.10;;
20997;SDS011;10657;51.276;6.390;2023-05-16T00:55:12;8.30;;;1.88;;
20997;SDS011;10657;51.276;6.390;2023-05-16T00:57:39;9.02;;;2.10;;
20997;SDS011;10657;51.276;6.390;2023-05-16T01:00:06;5.53;;;2.22;;
20997;SDS011;10657;51.276;6.390;2023-05-16T01:02:37;7.88;;;1.73;;
20997;SDS011;10657;51.276;6.390;2023-05-16T01:05:04;9.60;;;2.15;;
20997;SDS011;10657;51.276;6.390;2023-05-16T01:07:32;12.23;;;2.45;;
20997;SDS011;10657;51.276;6.390;2023-05-16T01:09:59;6.03;;;1.73;;
20997;SDS011;10657;51.276;6.390;2023-05-16T01:12:31;11.68;;;2.30;;
20997;SDS011;10657;51.276;6.390;2023-05-16T01:15:09;14.85;;;3.47;;
20997;SDS011;10657;51.276;6.390;2023-05-16T01:17:59;11.38;;;2.40;;
20997;SDS011;10657;51.276;6.390;2023-05-16T01:20:38;10.38;;;2.05;;
20997;SDS011;10657;51.276;6.390;2023-05-16T01:26:10;12.35;;;2.40;;
20997;SDS011;10657;51.276;6.390;2023-05-16T01:28:48;11.20;;;2.45;;
20997;SDS011;10657;51.276;6.390;2023-05-16T01:31:18;10.18;;;2.20;;
20997;SDS011;10657;51.276;6.390;2023-05-16T01:33:46;12.70;;;2.90;;
20997;SDS011;10657;51.276;6.390;2023-05-16T01:39:36;11.27;;;2.20;;
20997;SDS011;10657;51.276;6.390;2023-05-16T01:42:07;9.73;;;2.50;;
20997;SDS011;10657;51.276;6.390;2023-05-16T01:45:11;10.43;;;2.92;;
20997;SDS011;10657;51.276;6.390;2023-05-16T01:47:33;8.68;;;2.00;;
20997;SDS011;10657;51.276;6.390;2023-05-16T01:52:34;9.63;;;2.55;;
20997;SDS011;10657;51.276;6.390;2023-05-16T01:55:09;13.60;;;2.90;;
20997;SDS011;10657;51.276;6.390;2023-05-16T01:57:40;8.02;;;2.33;;
20997;SDS011;10657;51.276;6.390;2023-05-16T02:00:08;8.90;;;2.08;;
20997;SDS011;10657;51.276;6.390;2023-05-16T02:02:35;9.50;;;2.25;;
20997;SDS011;10657;51.276;6.390;2023-05-16T02:05:02;11.65;;;2.80;;
20997;SDS011;10657;51.276;6.390;2023-05-16T02:07:29;11.70;;;2.38;;
20997;SDS011;10657;51.276;6.390;2023-05-16T02:09:55;12.38;;;2.88;;
20997;SDS011;10657;51.276;6.390;2023-05-16T02:12:23;9.65;;;2.05;;
20997;SDS011;10657;51.276;6.390;2023-05-16T02:15:16;15.23;;;2.45;;
20997;SDS011;10657;51.276;6.390;2023-05-16T02:17:43;13.13;;;2.80;;
20997;SDS011;10657;51.276;6.390;2023-05-16T02:20:10;12.15;;;2.53;;
20997;SDS011;10657;51.276;6.390;2023-05-16T02:22:38;16.05;;;3.00;;
20997;SDS011;10657;51.276;6.390;2023-05-16T02:25:05;10.82;;;2.45;;
20997;SDS011;10657;51.276;6.390;2023-05-16T02:27:32;11.50;;;2.70;;
20997;SDS011;10657;51.276;6.390;2023-05-16T02:29:59;11.25;;;2.28;;
20997;SDS011;10657;51.276;6.390;2023-05-16T02:32:25;6.60;;;1.85;;
20997;SDS011;10657;51.276;6.390;2023-05-16T02:34:52;11.95;;;2.75;;
20997;SDS011;10657;51.276;6.390;2023-05-16T02:37:19;11.07;;;2.55;;
20997;SDS011;10657;51.276;6.390;2023-05-16T02:39:45;12.35;;;2.55;;
20997;SDS011;10657;51.276;6.390;2023-05-16T02:42:12;9.98;;;1.88;;
20997;SDS011;10657;51.276;6.390;2023-05-16T02:44:39;14.45;;;2.53;;
20997;SDS011;10657;51.276;6.390;2023-05-16T02:47:05;9.07;;;2.08;;
20997;SDS011;10657;51.276;6.390;2023-05-16T02:49:32;10.57;;;2.10;;
20997;SDS011;10657;51.276;6.390;2023-05-16T02:51:59;13.15;;;2.13;;
20997;SDS011;10657;51.276;6.390;2023-05-16T02:54:25;11.30;;;2.30;;
20997;SDS011;10657;51.276;6.390;2023-05-16T02:56:52;10.40;;;2.03;;
20997;SDS011;10657;51.276;6.390;2023-05-16T02:59:19;10.48;;;2.25;;
20997;SDS011;10657;51.276;6.390;2023-05-16T03:01:45;8.60;;;2.15;;
20997;SDS011;10657;51.276;6.390;2023-05-16T03:04:12;10.02;;;1.90;;
20997;SDS011;10657;51.276;6.390;2023-05-16T03:06:39;10.02;;;2.40;;
20997;SDS011;10657;51.276;6.390;2023-05-16T03:09:06;9.45;;;2.08;;
20997;SDS011;10657;51.276;6.390;2023-05-16T03:11:33;13.93;;;2.60;;
20997;SDS011;10657;51.276;6.390;2023-05-16T03:14:02;8.93;;;1.70;;
20997;SDS011;10657;51.276;6.390;2023-05-16T03:16:28;8.68;;;1.80;;
20997;SDS011;10657;51.276;6.390;2023-05-16T03:18:55;13.27;;;2.55;;
20997;SDS011;10657;51.276;6.390;2023-05-16T03:21:22;11.50;;;1.90;;
20997;SDS011;10657;51.276;6.390;2023-05-16T03:23:49;9.80;;;1.85;;
20997;SDS011;10657;51.276;6.390;2023-05-16T03:26:15;12.70;;;2.00;;
20997;SDS011;10657;51.276;6.390;2023-05-16T03:28:42;11.13;;;2.20;;
20997;SDS011;10657;51.276;6.390;2023-05-16T03:31:08;8.88;;;1.90;;
20997;SDS011;10657;51.276;6.390;2023-05-16T03:33:36;9.82;;;1.90;;
20997;SDS011;10657;51.276;6.390;2023-05-16T03:36:02;12.73;;;2.42;;
20997;SDS011;10657;51.276;6.390;2023-05-16T03:38:30;11.10;;;2.00;;
20997;SDS011;10657;51.276;6.390;2023-05-16T03:40:57;7.57;;;1.67;;
20997;SDS011;10657;51.276;6.390;2023-05-16T03:43:24;10.77;;;2.00;;
20997;SDS011;10657;51.276;6.390;2023-05-16T03:45:50;6.55;;;1.48;;
20997;SDS011;10657;51.276;6.390;2023-05-16T03:48:17;6.72;;;2.03;;
20997;SDS011;10657;51.276;6.390;2023-05-16T03:50:44;8.73;;;1.58;;
20997;SDS011;10657;51.276;6.390;2023-05-16T03:53:10;8.73;;;2.20;;
20997;SDS011;10657;51.276;6.390;2023-05-16T03:55:37;14.73;;;2.40;;
20997;SDS011;10657;51.276;6.390;2023-05-16T03:58:04;7.53;;;1.50;;
20997;SDS011;10657;51.276;6.390;2023-05-16T04:00:31;9.25;;;2.22;;
20997;SDS011;10657;51.276;6.390;2023-05-16T04:02:59;8.68;;;1.50;;
20997;SDS011;10657;51.276;6.390;2023-05-16T04:05:26;9.50;;;1.98;;
20997;SDS011;10657;51.276;6.390;2023-05-16T04:07:53;10.38;;;1.98;;
20997;SDS011;10657;51.276;6.390;2023-05-16T04:10:20;8.70;;;1.80;;
20997;SDS011;10657;51.276;6.390;2023-05-16T04:12:47;9.60;;;2.05;;
20997;SDS011;10657;51.276;6.390;2023-05-16T04:15:14;10.15;;;1.90;;
20997;SDS011;10657;51.276;6.390;2023-05-16T04:17:40;16.30;;;2.00;;
20997;SDS011;10657;51.276;6.390;2023-05-16T04:20:07;11.90;;;2.50;;
20997;SDS011;10657;51.276;6.390;2023-05-16T04:22:34;8.98;;;1.95;;
20997;SDS011;10657;51.276;6.390;2023-05-16T04:25:01;10.52;;;1.83;;
20997;SDS011;10657;51.276;6.390;2023-05-16T04:27:27;8.93;;;1.95;;
20997;SDS011;10657;51.276;6.390;2023-05-16T04:29:55;13.80;;;2.20;;
20997;SDS011;10657;51.276;6.390;2023-05-16T04:32:22;9.88;;;1.77;;
20997;SDS011;10657;51.276;6.390;2023-05-16T04:34:49;11.90;;;1.80;;
20997;SDS011;10657;51.276;6.390;2023-05-16T04:37:18;11.73;;;1.85;;
20997;SDS011;10657;51.276;6.390;2023-05-16T04:39:45;7.07;;;1.77;;
20997;SDS011;10657;51.276;6.390;2023-05-16T04:42:12;9.32;;;1.75;;
20997;SDS011;10657;51.276;6.390;2023-05-16T04:44:39;10.60;;;1.98;;
20997;SDS011;10657;51.276;6.390;2023-05-16T04:47:06;10.95;;;1.77;;
20997;SDS011;10657;51.276;6.390;2023-05-16T04:49:32;7.18;;;1.55;;
20997;SDS011;10657;51.276;6.390;2023-05-16T04:51:59;10.45;;;2.30;;
20997;SDS011;10657;51.276;6.390;2023-05-16T04:54:27;6.65;;;1.45;;
20997;SDS011;10657;51.276;6.390;2023-05-16T04:56:53;11.32;;;1.92;;
20997;SDS011;10657;51.276;6.390;2023-05-16T04:59:20;6.90;;;1.50;;
20997;SDS011;10657;51.276;6.390;2023-05-16T05:01:47;7.85;;;1.67;;
20997;SDS011;10657;51.276;6.390;2023-05-16T05:04:13;9.90;;;1.60;;
20997;SDS011;10657;51.276;6.390;2023-05-16T05:06:40;11.35;;;1.80;;
20997;SDS011;10657;51.276;6.390;2023-05-16T05:09:07;7.80;;;1.75;;
20997;SDS011;10657;51.276;6.390;2023-05-16T05:11:33;10.85;;;1.80;;
20997;SDS011;10657;51.276;6.390;2023-05-16T05:14:00;10.95;;;1.55;;
20997;SDS011;10657;51.276;6.390;2023-05-16T05:16:27;17.15;;;5.50;;
20997;SDS011;10657;51.276;6.390;2023-05-16T05:18:53;20.58;;;8.50;;
20997;SDS011;10657;51.276;6.390;2023-05-16T05:21:20;18.20;;;7.32;;
20997;SDS011;10657;51.276;6.390;2023-05-16T05:23:50;21.52;;;9.30;;
20997;SDS011;10657;51.276;6.390;2023-05-16T05:26:17;24.17;;;11.15;;
20997;SDS011;10657;51.276;6.390;2023-05-16T05:28:43;20.17;;;7.90;;
20997;SDS011;10657;51.276;6.390;2023-05-16T05:31:22;20.75;;;6.30;;
20997;SDS011;10657;51.276;6.390;2023-05-16T05:33:49;22.45;;;7.53;;
20997;SDS011;10657;51.276;6.390;2023-05-16T05:36:16;18.38;;;6.53;;
20997;SDS011;10657;51.276;6.390;2023-05-16T05:38:43;12.75;;;3.30;;
20997;SDS011;10657;51.276;6.390;2023-05-16T05:41:09;14.75;;;5.47;;
20997;SDS011;10657;51.276;6.390;2023-05-16T05:43:36;20.30;;;7.85;;
20997;SDS011;10657;51.276;6.390;2023-05-16T05:46:03;14.10;;;3.78;;
20997;SDS011;10657;51.276;6.390;2023-05-16T05:48:30;15.32;;;4.68;;
20997;SDS011;10657;51.276;6.390;2023-05-16T05:50:58;10.63;;;2.47;;
20997;SDS011;10657;51.276;6.390;2023-05-16T05:53:24;11.40;;;2.55;;
20997;SDS011;10657;51.276;6.390;2023-05-16T05:55:51;6.63;;;1.40;;
20997;SDS011;10657;51.276;6.390;2023-05-16T05:58:18;10.63;;;1.75;;
20997;SDS011;10657;51.276;6.390;2023-05-16T06:00:45;12.23;;;1.92;;
20997;SDS011;10657;51.276;6.390;2023-05-16T06:03:12;8.30;;;1.90;;
20997;SDS011;10657;51.276;6.390;2023-05-16T06:05:39;10.65;;;2.13;;
20997;SDS011;10657;51.276;6.390;2023-05-16T06:08:06;15.23;;;2.58;;
20997;SDS011;10657;51.276;6.390;2023-05-16T06:10:33;8.25;;;1.88;;
20997;SDS011;10657;51.276;6.390;2023-05-16T06:12:59;12.05;;;2.15;;
20997;SDS011;10657;51.276;6.390;2023-05-16T06:15:26;13.50;;;2.15;;
20997;SDS011;10657;51.276;6.390;2023-05-16T06:17:53;10.25;;;1.92;;
20997;SDS011;10657;51.276;6.390;2023-05-16T06:20:20;9.52;;;2.00;;
20997;SDS011;10657;51.276;6.390;2023-05-16T06:22:47;8.77;;;1.85;;
20997;SDS011;10657;51.276;6.390;2023-05-16T06:25:14;7.22;;;1.60;;
20997;SDS011;10657;51.276;6.390;2023-05-16T06:27:41;10.52;;;1.80;;
20997;SDS011;10657;51.276;6.390;2023-05-16T06:30:07;9.35;;;2.10;;
20997;SDS011;10657;51.276;6.390;2023-05-16T06:32:34;8.82;;;1.58;;
20997;SDS011;10657;51.276;6.390;2023-05-16T06:35:01;9.38;;;1.70;;
20997;SDS011;10657;51.276;6.390;2023-05-16T06:37:28;12.98;;;2.30;;
20997;SDS011;10657;51.276;6.390;2023-05-16T06:39:54;11.15;;;2.13;;
20997;SDS011;10657;51.276;6.390;2023-05-16T06:42:21;13.23;;;2.30;;
20997;SDS011;10657;51.276;6.390;2023-05-16T06:44:48;15.23;;;2.40;;
20997;SDS011;10657;51.276;6.390;2023-05-16T06:47:14;9.65;;;1.80;;
20997;SDS011;10657;51.276;6.390;2023-05-16T06:49:41;10.10;;;1.50;;
20997;SDS011;10657;51.276;6.390;2023-05-16T06:52:08;9.25;;;1.80;;
20997;SDS011;10657;51.276;6.390;2023-05-16T06:54:35;9.52;;;2.08;;
20997;SDS011;10657;51.276;6.390;2023-05-16T06:57:01;11.90;;;2.03;;
20997;SDS011;10657;51.276;6.390;2023-05-16T06:59:29;8.38;;;1.77;;
20997;SDS011;10657;51.276;6.390;2023-05-16T07:01:56;9.65;;;1.58;;
20997;SDS011;10657;51.276;6.390;2023-05-16T07:04:22;13.65;;;3.88;;
20997;SDS011;10657;51.276;6.390;2023-05-16T07:06:49;19.73;;;2.80;;
20997;SDS011;10657;51.276;6.390;2023-05-16T07:09:16;10.13;;;1.77;;
20997;SDS011;10657;51.276;6.390;2023-05-16T07:11:42;4.13;;;1.23;;
20997;SDS011;10657;51.276;6.390;2023-05-16T07:14:09;10.77;;;2.50;;
20997;SDS011;10657;51.276;6.390;2023-05-16T07:16:36;8.05;;;1.60;;
20997;SDS011;10657;51.276;6.390;2023-05-16T07:19:03;7.47;;;1.60;;
20997;SDS011;10657;51.276;6.390;2023-05-16T07:21:32;7.70;;;1.50;;
20997;SDS011;10657;51.276;6.390;2023-05-16T07:23:58;11.25;;;1.85;;
20997;SDS011;10657;51.276;6.390;2023-05-16T07:26:25;9.07;;;1.77;;
20997;SDS011;10657;51.276;6.390;2023-05-16T07:28:52;7.40;;;1.40;;
20997;SDS011;10657;51.276;6.390;2023-05-16T07:31:19;9.55;;;2.10;;
20997;SDS011;10657;51.276;6.390;2023-05-16T07:33:45;11.10;;;1.92;;
20997;SDS011;10657;51.276;6.390;2023-05-16T07:36:12;4.13;;;1.10;;
20997;SDS011;10657;51.276;6.390;2023-05-16T07:38:43;6.40;;;1.25;;
20997;SDS011;10657;51.276;6.390;2023-05-16T07:41:10;10.00;;;1.95;;
20997;SDS011;10657;51.276;6.390;2023-05-16T07:43:37;8.68;;;1.40;;
20997;SDS011;10657;51.276;6.390;2023-05-16T07:46:04;7.28;;;1.67;;
20997;SDS011;10657;51.276;6.390;2023-05-16T07:48:31;12.65;;;2.00;;
20997;SDS011;10657;51.276;6.390;2023-05-16T07:50:57;11.45;;;2.67;;
20997;SDS011;10657;51.276;6.390;2023-05-16T07:53:24;6.47;;;1.30;;
20997;SDS011;10657;51.276;6.390;2023-05-16T07:55:51;8.65;;;1.65;;
20997;SDS011;10657;51.276;6.390;2023-05-16T07:58:17;11.82;;;1.80;;
20997;SDS011;10657;51.276;6.390;2023-05-16T08:00:44;9.27;;;2.38;;
20997;SDS011;10657;51.276;6.390;2023-05-16T08:03:11;10.00;;;1.88;;
20997;SDS011;10657;51.276;6.390;2023-05-16T08:05:38;4.00;;;1.30;;
20997;SDS011;10657;51.276;6.390;2023-05-16T08:08:05;7.32;;;1.90;;
20997;SDS011;10657;51.276;6.390;2023-05-16T08:10:32;8.07;;;1.45;;
20997;SDS011;10657;51.276;6.390;2023-05-16T08:12:58;6.18;;;1.20;;
20997;SDS011;10657;51.276;6.390;2023-05-16T08:15:29;11.18;;;1.80;;
20997;SDS011;10657;51.276;6.390;2023-05-16T08:17:56;13.30;;;2.65;;
20997;SDS011;10657;51.276;6.390;2023-05-16T08:20:24;12.75;;;2.88;;
20997;SDS011;10657;51.276;6.390;2023-05-16T08:22:51;9.07;;;1.50;;
20997;SDS011;10657;51.276;6.390;2023-05-16T08:25:18;11.65;;;4.50;;
20997;SDS011;10657;51.276;6.390;2023-05-16T08:27:45;4.53;;;1.20;;
20997;SDS011;10657;51.276;6.390;2023-05-16T08:30:12;13.90;;;4.60;;
20997;SDS011;10657;51.276;6.390;2023-05-16T08:32:39;7.20;;;1.40;;
20997;SDS011;10657;51.276;6.390;2023-05-16T08:35:06;13.77;;;4.00;;
20997;SDS011;10657;51.276;6.390;2023-05-16T08:37:33;6.70;;;1.42;;
20997;SDS011;10657;51.276;6.390;2023-05-16T08:40:00;10.23;;;2.10;;
20997;SDS011;10657;51.276;6.390;2023-05-16T08:42:30;8.10;;;1.48;;
20997;SDS011;10657;51.276;6.390;2023-05-16T08:44:59;7.72;;;1.90;;
20997;SDS011;10657;51.276;6.390;2023-05-16T08:47:26;10.20;;;1.73;;
20997;SDS011;10657;51.276;6.390;2023-05-16T08:49:57;12.43;;;1.75;;
20997;SDS011;10657;51.276;6.390;2023-05-16T08:52:26;7.75;;;1.83;;
20997;SDS011;10657;51.276;6.390;2023-05-16T08:54:56;5.65;;;1.35;;
20997;SDS011;10657;51.276;6.390;2023-05-16T08:57:30;8.57;;;1.80;;
20997;SDS011;10657;51.276;6.390;2023-05-16T08:59:58;6.03;;;1.20;;
20997;SDS011;10657;51.276;6.390;2023-05-16T09:02:26;10.18;;;2.25;;
20997;SDS011;10657;51.276;6.390;2023-05-16T09:04:53;9.65;;;1.73;;
20997;SDS011;10657;51.276;6.390;2023-05-16T09:07:23;9.95;;;1.60;;
20997;SDS011;10657;51.276;6.390;2023-05-16T09:09:50;5.55;;;1.23;;
20997;SDS011;10657;51.276;6.390;2023-05-16T09:12:16;8.80;;;1.60;;
20997;SDS011;10657;51.276;6.390;2023-05-16T09:14:45;3.30;;;0.80;;
20997;SDS011;10657;51.276;6.390;2023-05-16T09:17:12;7.97;;;1.40;;
20997;SDS011;10657;51.276;6.390;2023-05-16T09:19:45;5.35;;;1.23;;
20997;SDS011;10657;51.276;6.390;2023-05-16T09:22:15;5.82;;;1.08;;
20997;SDS011;10657;51.276;6.390;2023-05-16T09:24:43;7.25;;;1.65;;
20997;SDS011;10657;51.276;6.390;2023-05-16T09:27:12;5.00;;;1.25;;
20997;SDS011;10657;51.276;6.390;2023-05-16T09:29:40;8.48;;;1.35;;
20997;SDS011;10657;51.276;6.390;2023-05-16T09:32:14;4.20;;;1.00;;
20997;SDS011;10657;51.276;6.390;2023-05-16T09:34:47;5.55;;;0.80;;
20997;SDS011;10657;51.276;6.390;2023-05-16T09:37:17;7.30;;;1.10;;
20997;SDS011;10657;51.276;6.390;2023-05-16T09:39:47;4.03;;;1.15;;
20997;SDS011;10657;51.276;6.390;2023-05-16T09:42:16;5.85;;;1.23;;
20997;SDS011;10657;51.276;6.390;2023-05-16T09:44:51;7.47;;;1.10;;
20997;SDS011;10657;51.276;6.390;2023-05-16T09:47:20;9.02;;;1.35;;
20997;SDS011;10657;51.276;6.390;2023-05-16T09:49:50;5.78;;;1.30;;
20997;SDS011;10657;51.276;6.390;2023-05-16T09:52:17;7.25;;;1.15;;
20997;SDS011;10657;51.276;6.390;2023-05-16T09:54:45;7.50;;;1.55;;
20997;SDS011;10657;51.276;6.390;2023-05-16T09:57:19;10.15;;;2.92;;
20997;SDS011;10657;51.276;6.390;2023-05-16T09:59:46;10.38;;;3.45;;
20997;SDS011;10657;51.276;6.390;2023-05-16T10:02:13;14.82;;;4.93;;
20997;SDS011;10657;51.276;6.390;2023-05-16T10:04:41;8.57;;;2.00;;
20997;SDS011;10657;51.276;6.390;2023-05-16T10:07:07;8.30;;;1.50;;
20997;SDS011;10657;51.276;6.390;2023-05-16T10:09:35;12.02;;;1.77;;
20997;SDS011;10657;51.276;6.390;2023-05-16T10:12:06;5.90;;;1.40;;
20997;SDS011;10657;51.276;6.390;2023-05-16T10:14:36;4.70;;;1.05;;
20997;SDS011;10657;51.276;6.390;2023-05-16T10:17:06;8.60;;;1.40;;
20997;SDS011;10657;51.276;6.390;2023-05-16T10:19:37;6.05;;;1.27;;
20997;SDS011;10657;51.276;6.390;2023-05-16T10:22:05;4.78;;;1.10;;
20997;SDS011;10657;51.276;6.390;2023-05-16T10:27:05;6.80;;;1.20;;
20997;SDS011;10657;51.276;6.390;2023-05-16T10:29:32;8.88;;;1.00;;
20997;SDS011;10657;51.276;6.390;2023-05-16T10:32:18;7.13;;;1.45;;
20997;SDS011;10657;51.276;6.390;2023-05-16T10:34:48;7.80;;;1.77;;
20997;SDS011;10657;51.276;6.390;2023-05-16T10:37:15;5.50;;;1.30;;
20997;SDS011;10657;51.276;6.390;2023-05-16T10:39:42;7.00;;;1.38;;
20997;SDS011;10657;51.276;6.390;2023-05-16T10:42:09;7.25;;;2.30;;
20997;SDS011;10657;51.276;6.390;2023-05-16T10:44:37;6.18;;;1.40;;
20997;SDS011;10657;51.276;6.390;2023-05-16T10:47:06;8.15;;;1.55;;
20997;SDS011;10657;51.276;6.390;2023-05-16T10:49:33;9.63;;;1.38;;
20997;SDS011;10657;51.276;6.390;2023-05-16T10:54:36;2.65;;;0.85;;
20997;SDS011;10657;51.276;6.390;2023-05-16T10:57:09;8.88;;;1.48;;
20997;SDS011;10657;51.276;6.390;2023-05-16T10:59:40;4.28;;;1.02;;
20997;SDS011;10657;51.276;6.390;2023-05-16T11:02:25;7.18;;;1.20;;
20997;SDS011;10657;51.276;6.390;2023-05-16T11:04:55;5.63;;;1.08;;
20997;SDS011;10657;51.276;6.390;2023-05-16T11:07:25;5.97;;;1.48;;
20997;SDS011;10657;51.276;6.390;2023-05-16T11:10:03;9.10;;;1.40;;
20997;SDS011;10657;51.276;6.390;2023-05-16T11:15:15;6.20;;;1.23;;
20997;SDS011;10657;51.276;6.390;2023-05-16T11:17:42;7.10;;;1.00;;
20997;SDS011;10657;51.276;6.390;2023-05-16T11:20:24;5.18;;;0.90;;
20997;SDS011;10657;51.276;6.390;2023-05-16T11:23:16;4.28;;;0.90;;
20997;SDS011;10657;51.276;6.390;2023-05-16T11:25:56;5.72;;;1.08;;
20997;SDS011;10657;51.276;6.390;2023-05-16T11:28:25;9.07;;;1.45;;
20997;SDS011;10657;51.276;6.390;2023-05-16T11:30:54;6.22;;;1.02;;
20997;SDS011;10657;51.276;6.390;2023-05-16T11:33:23;7.53;;;1.20;;
20997;SDS011;10657;51.276;6.390;2023-05-16T11:36:00;4.22;;;1.20;;
20997;SDS011;10657;51.276;6.390;2023-05-16T11:38:41;7.07;;;1.35;;
20997;SDS011;10657;51.276;6.390;2023-05-16T11:41:08;5.80;;;1.58;;
20997;SDS011;10657;51.276;6.390;2023-05-16T11:43:38;5.47;;;1.10;;
20997;SDS011;10657;51.276;6.390;2023-05-16T11:46:14;6.72;;;1.20;;
20997;SDS011;10657;51.276;6.390;2023-05-16T11:48:42;3.85;;;1.05;;
20997;SDS011;10657;51.276;6.390;2023-05-16T11:51:10;5.63;;;1.02;;
20997;SDS011;10657;51.276;6.390;2023-05-16T11:53:37;5.70;;;1.05;;
20997;SDS011;10657;51.276;6.390;2023-05-16T11:56:05;4.60;;;1.27;;
20997;SDS011;10657;51.276;6.390;2023-05-16T11:58:33;5.70;;;1.20;;
20997;SDS011;10657;51.276;6.390;2023-05-16T12:01:02;3.38;;;0.95;;
20997;SDS011;10657;51.276;6.390;2023-05-16T12:03:30;8.05;;;0.98;;
20997;SDS011;10657;51.276;6.390;2023-05-16T12:06:01;3.60;;;0.85;;
20997;SDS011;10657;51.276;6.390;2023-05-16T12:08:28;3.80;;;1.48;;
20997;SDS011;10657;51.276;6.390;2023-05-16T12:10:55;2.92;;;0.80;;
20997;SDS011;10657;51.276;6.390;2023-05-16T12:13:22;3.00;;;0.90;;
20997;SDS011;10657;51.276;6.390;2023-05-16T12:15:50;4.80;;;0.93;;
20997;SDS011;10657;51.276;6.390;2023-05-16T12:18:17;5.25;;;0.90;;
20997;SDS011;10657;51.276;6.390;2023-05-16T12:20:46;6.35;;;1.13;;
20997;SDS011;10657;51.276;6.390;2023-05-16T12:23:13;6.32;;;1.05;;
20997;SDS011;10657;51.276;6.390;2023-05-16T12:25:44;6.10;;;1.00;;
20997;SDS011;10657;51.276;6.390;2023-05-16T12:28:12;6.85;;;0.93;;
20997;SDS011;10657;51.276;6.390;2023-05-16T12:30:40;5.85;;;1.13;;
20997;SDS011;10657;51.276;6.390;2023-05-16T12:33:09;6.05;;;1.13;;
20997;SDS011;10657;51.276;6.390;2023-05-16T12:35:41;4.93;;;1.10;;
20997;SDS011;10657;51.276;6.390;2023-05-16T12:38:10;4.78;;;1.00;;
20997;SDS011;10657;51.276;6.390;2023-05-16T12:40:39;5.65;;;1.20;;
20997;SDS011;10657;51.276;6.390;2023-05-16T12:43:18;7.68;;;1.40;;
20997;SDS011;10657;51.276;6.390;2023-05-16T12:45:49;4.47;;;1.00;;
20997;SDS011;10657;51.276;6.390;2023-05-16T12:48:20;4.22;;;0.80;;
20997;SDS011;10657;51.276;6.390;2023-05-16T12:50:48;5.53;;;1.27;;
20997;SDS011;10657;51.276;6.390;2023-05-16T12:53:17;5.80;;;0.93;;
20997;SDS011;10657;51.276;6.390;2023-05-16T12:55:44;6.95;;;1.00;;
20997;SDS011;10657;51.276;6.390;2023-05-16T12:58:11;3.05;;;0.80;;
20997;SDS011;10657;51.276;6.390;2023-05-16T13:00:38;5.18;;;0.93;;
20997;SDS011;10657;51.276;6.390;2023-05-16T13:03:06;4.88;;;0.70;;
20997;SDS011;10657;51.276;6.390;2023-05-16T13:05:33;3.83;;;0.80;;
20997;SDS011;10657;51.276;6.390;2023-05-16T13:08:01;4.65;;;0.93;;
20997;SDS011;10657;51.276;6.390;2023-05-16T13:10:27;2.53;;;0.82;;
20997;SDS011;10657;51.276;6.390;2023-05-16T13:12:54;5.45;;;1.00;;
20997;SDS011;10657;51.276;6.390;2023-05-16T13:15:23;4.03;;;1.10;;
20997;SDS011;10657;51.276;6.390;2023-05-16T13:17:51;2.72;;;0.80;;
20997;SDS011;10657;51.276;6.390;2023-05-16T13:20:18;6.53;;;1.10;;
20997;SDS011;10657;51.276;6.390;2023-05-16T13:22:45;6.43;;;0.95;;
20997;SDS011;10657;51.276;6.390;2023-05-16T13:25:13;5.18;;;1.05;;
20997;SDS011;10657;51.276;6.390;2023-05-16T13:27:40;4.43;;;1.10;;
20997;SDS011;10657;51.276;6.390;2023-05-16T13:30:07;3.83;;;0.80;;
20997;SDS011;10657;51.276;6.390;2023-05-16T13:32:34;8.25;;;1.20;;
20997;SDS011;10657;51.276;6.390;2023-05-16T13:35:00;7.00;;;1.05;;
20997;SDS011;10657;51.276;6.390;2023-05-16T13:37:29;6.82;;;1.38;;
20997;SDS011;10657;51.276;6.390;2023-05-16T13:39:55;6.82;;;1.10;;
20997;SDS011;10657;51.276;6.390;2023-05-16T13:42:22;3.88;;;1.02;;
20997;SDS011;10657;51.276;6.390;2023-05-16T13:44:49;7.97;;;1.73;;
20997;SDS011;10657;51.276;6.390;2023-05-16T13:47:16;6.10;;;1.52;;
20997;SDS011;10657;51.276;6.390;2023-05-16T13:49:42;6.40;;;1.27;;
20997;SDS011;10657;51.276;6.390;2023-05-16T13:52:09;3.45;;;0.88;;
20997;SDS011;10657;51.276;6.390;2023-05-16T13:54:36;8.07;;;1.30;;
20997;SDS011;10657;51.276;6.390;2023-05-16T13:57:04;5.25;;;1.38;;
20997;SDS011;10657;51.276;6.390;2023-05-16T13:59:32;5.28;;;0.90;;
20997;SDS011;10657;51.276;6.390;2023-05-16T14:02:02;2.88;;;0.93;;
20997;SDS011;10657;51.276;6.390;2023-05-16T14:04:29;5.28;;;1.15;;
20997;SDS011;10657;51.276;6.390;2023-05-16T14:06:55;4.05;;;1.00;;
20997;SDS011;10657;51.276;6.390;2023-05-16T14:09:23;4.40;;;1.02;;
20997;SDS011;10657;51.276;6.390;2023-05-16T14:11:49;7.30;;;1.20;;
20997;SDS011;10657;51.276;6.390;2023-05-16T14:14:16;9.57;;;1.52;;
20997;SDS011;10657;51.276;6.390;2023-05-16T14:16:43;6.47;;;1.35;;
20997;SDS011;10657;51.276;6.390;2023-05-16T14:19:11;7.55;;;1.10;;
20997;SDS011;10657;51.276;6.390;2023-05-16T14:21:40;7.93;;;1.75;;
20997;SDS011;10657;51.276;6.390;2023-05-16T14:24:07;6.20;;;0.75;;
20997;SDS011;10657;51.276;6.390;2023-05-16T14:26:33;4.57;;;1.13;;
20997;SDS011;10657;51.276;6.390;2023-05-16T14:29:00;2.85;;;0.82;;
20997;SDS011;10657;51.276;6.390;2023-05-16T14:31:27;4.57;;;1.42;;
20997;SDS011;10657;51.276;6.390;2023-05-16T14:33:55;4.47;;;1.38;;
20997;SDS011;10657;51.276;6.390;2023-05-16T14:36:21;6.18;;;1.38;;
20997;SDS011;10657;51.276;6.390;2023-05-16T14:38:48;5.63;;;1.20;;
20997;SDS011;10657;51.276;6.390;2023-05-16T14:41:15;7.68;;;1.48;;
20997;SDS011;10657;51.276;6.390;2023-05-16T14:43:42;5.28;;;1.10;;
20997;SDS011;10657;51.276;6.390;2023-05-16T14:46:09;9.30;;;1.65;;
20997;SDS011;10657;51.276;6.390;2023-05-16T14:48:36;7.63;;;1.70;;
20997;SDS011;10657;51.276;6.390;2023-05-16T14:51:03;9.35;;;1.30;;
20997;SDS011;10657;51.276;6.390;2023-05-16T14:53:30;8.30;;;1.35;;
20997;SDS011;10657;51.276;6.390;2023-05-16T14:55:57;6.50;;;1.42;;
20997;SDS011;10657;51.276;6.390;2023-05-16T14:58:24;7.35;;;1.60;;
20997;SDS011;10657;51.276;6.390;2023-05-16T15:00:52;6.85;;;1.33;;
20997;SDS011;10657;51.276;6.390;2023-05-16T15:03:18;6.50;;;1.80;;
20997;SDS011;10657;51.276;6.390;2023-05-16T15:05:45;8.98;;;1.55;;